2019-11-17 - 07:27:00

SR: 0653 - SS: 1536

RWY: 25


OBSERVATION: n/a

RVR Mean 1 min: (Runway Visual Range)
A: P2000 - B: P2000 - C: P2000
RVR Mean 10 min:
A: P2000 - B: P2000 - C: P2000
WARNING: n/a
W25: 010-080(030-02kt) 01kt-03kt
W07: 050-100(060-03kt) 02kt-03kt
OTHER: n/a

QFE: (tatsächlicher Luftdruck) 1007.2 hPa = 29.73 inHg
QNH:(Luftdruck auf Meereshöhe) 1013.0 hPa = 29.91 inHg
Temperatur: -0.6 °C
Dew point(Taupunkt): -1.1 °C

METAR:  00345 SADL31 EDDG 170720 METAR EDDG 170720Z VRB01KT 3500 BR NSC M01/M01 Q1013 BECMG 7000= 
METAR (aus weather.noaa.gov):
2019/11/17 07:20 EDDG 170720Z VRB01KT 3500 BR NSC M01/M01 Q1013 BECMG 7000 0

TAF (aus weather.noaa.gov):
2019/11/17 06:27 TAF EDDG 170500Z 1706/1806 VRB03KT CAVOK TEMPO 1706/1710 3500 BCFG PROB30 TEMPO 1706/1710 0800 FZFG BKN003 BECMG 1708/1711 03007KT TEMPO 1721/1806 RA BKN008 0
NOWCAST
263
FODL44 EDDG 170700
FODL44 EDDG 1911170705
# Nowcasting EDDG 17.11.2019 07:05 UTC
Parameter/Stunde08091011121314
Windrichtung090030020020020020010
Windgeschwindigkeit1223466
Böen--------------
Lufttemperatur-0 1 3 4 5 5 5
Taupunkt-1 0 1 2 2 2 2
Belagstemperatur-1 1 3 4 5 5 5
Wetter-vorherrschendFZFG------------
QNH1013101310131013101210121011
Wind in 5000 ft180/10180/10150/05130/05100/05080/10070/10
Wind in 3000 ft180/05150/05110/05090/05080/10070/10070/15
Wind in 2000 ft120/05100/05080/10080/10070/15070/15070/20
Wind in 1000 ft110/05090/05070/10070/10060/15060/20050/20